createdAt,value
2019-01-06T00:01:47.444Z,27.90
2019-01-06T00:04:28.168Z,34.43
2019-01-06T00:07:16.579Z,38.63
2019-01-06T00:10:17.069Z,21.20
2019-01-06T00:13:04.298Z,14.45
2019-01-06T00:15:52.704Z,12.68
2019-01-06T00:18:50.046Z,18.30
2019-01-06T00:21:41.499Z,17.27
2019-01-06T00:24:31.839Z,14.85
2019-01-06T00:27:19.123Z,13.28
2019-01-06T00:30:06.252Z,11.75
2019-01-06T00:32:53.257Z,14.55
2019-01-06T00:35:41.618Z,13.35
2019-01-06T00:38:35.803Z,14.63
2019-01-06T00:41:22.966Z,13.03
2019-01-06T00:44:10.289Z,13.45
2019-01-06T00:46:58.585Z,13.03
2019-01-06T00:49:46.999Z,14.40
2019-01-06T00:52:38.148Z,11.83
2019-01-06T00:55:25.509Z,14.73
2019-01-06T00:58:13.899Z,13.48
2019-01-06T01:01:08.294Z,16.77
2019-01-06T01:03:59.895Z,15.08
2019-01-06T01:07:04.090Z,15.68
2019-01-06T01:09:52.204Z,20.17
2019-01-06T01:12:39.503Z,18.77
2019-01-06T01:15:46.016Z,18.37
2019-01-06T01:18:33.151Z,13.97
2019-01-06T01:21:22.589Z,13.78
2019-01-06T01:24:14.015Z,15.98
2019-01-06T01:27:17.755Z,13.30
2019-01-06T01:30:09.010Z,13.18
2019-01-06T01:32:52.459Z,13.20
2019-01-06T01:35:39.549Z,11.20
2019-01-06T01:38:27.944Z,14.37
2019-01-06T01:41:13.268Z,13.58
2019-01-06T01:44:00.238Z,16.32
2019-01-06T01:47:07.014Z,11.50
2019-01-06T01:50:10.570Z,12.00
2019-01-06T01:53:01.902Z,14.63
2019-01-06T01:56:08.342Z,11.30
2019-01-06T01:59:12.175Z,11.35
2019-01-06T02:02:09.566Z,12.45
2019-01-06T02:05:02.840Z,10.08
2019-01-06T02:08:03.528Z,10.30
2019-01-06T02:10:42.544Z,9.75
2019-01-06T02:13:43.104Z,10.40
2019-01-06T02:16:43.747Z,11.18
2019-01-06T02:19:47.164Z,10.38
2019-01-06T02:22:50.628Z,13.20
2019-01-06T02:25:54.302Z,9.53
2019-01-06T02:28:42.647Z,10.45
2019-01-06T02:31:33.920Z,12.70
2019-01-06T02:34:21.057Z,8.58
2019-01-06T02:37:14.529Z,7.37
2019-01-06T02:39:53.703Z,8.08
2019-01-06T02:43:00.569Z,8.75
2019-01-06T02:45:55.004Z,18.40
2019-01-06T02:48:43.380Z,16.20
2019-01-06T02:51:48.107Z,11.65
2019-01-06T02:54:36.412Z,8.93
2019-01-06T02:57:19.222Z,11.45
2019-01-06T03:00:13.482Z,14.68
2019-01-06T03:03:16.945Z,16.52
2019-01-06T03:06:20.715Z,12.33
2019-01-06T03:09:21.362Z,9.75
2019-01-06T03:12:08.531Z,9.13
2019-01-06T03:14:57.150Z,21.48
2019-01-06T03:17:45.522Z,13.30
2019-01-06T03:20:32.706Z,10.35
2019-01-06T03:23:27.556Z,7.50
2019-01-06T03:26:14.484Z,6.65
2019-01-06T03:28:55.413Z,6.83
2019-01-06T03:31:49.837Z,7.87
2019-01-06T03:34:38.199Z,10.78
2019-01-06T03:37:25.147Z,6.78
2019-01-06T03:40:13.709Z,6.33
2019-01-06T03:43:01.216Z,5.83
2019-01-06T03:45:48.199Z,4.87
2019-01-06T03:48:39.428Z,7.03
2019-01-06T03:51:38.527Z,5.47
2019-01-06T03:54:45.300Z,7.50
2019-01-06T03:57:32.259Z,7.15
2019-01-06T04:00:19.577Z,5.58
2019-01-06T04:02:56.523Z,8.23
2019-01-06T04:05:47.355Z,8.63
2019-01-06T04:08:34.671Z,7.95
2019-01-06T04:11:21.754Z,7.42
2019-01-06T04:14:08.761Z,9.80
2019-01-06T04:17:03.241Z,9.20
2019-01-06T04:19:51.904Z,8.00
2019-01-06T04:22:39.077Z,10.95
2019-01-06T04:25:30.736Z,7.67
2019-01-06T04:28:25.315Z,9.80
2019-01-06T04:31:12.407Z,8.88
2019-01-06T04:33:58.683Z,9.00
2019-01-06T04:37:00.510Z,8.23
2019-01-06T04:39:48.990Z,8.77
2019-01-06T04:42:52.672Z,6.97
2019-01-06T04:45:41.346Z,6.07
2019-01-06T04:48:28.518Z,7.07
2019-01-06T04:51:23.192Z,8.40
2019-01-06T04:54:11.948Z,6.35
2019-01-06T04:57:14.700Z,8.10
2019-01-06T05:00:09.360Z,7.67
2019-01-06T05:02:57.764Z,7.37
2019-01-06T05:06:04.348Z,6.65
2019-01-06T05:08:51.688Z,8.33
2019-01-06T05:11:38.946Z,7.62
2019-01-06T05:14:26.348Z,9.35
2019-01-06T05:17:16.474Z,7.37
2019-01-06T05:20:07.654Z,6.83
2019-01-06T05:22:54.961Z,6.97
2019-01-06T05:25:51.711Z,7.13
2019-01-06T05:28:52.434Z,8.63
2019-01-06T05:31:41.953Z,8.63
2019-01-06T05:34:36.510Z,11.50
2019-01-06T05:37:24.040Z,8.78
2019-01-06T05:40:12.001Z,9.03
2019-01-06T05:42:58.967Z,8.28
2019-01-06T05:45:46.020Z,10.50
2019-01-06T05:48:33.138Z,6.80
2019-01-06T05:51:27.430Z,5.25
2019-01-06T05:54:15.854Z,6.53
2019-01-06T05:57:10.418Z,4.17
2019-01-06T06:00:14.214Z,5.80
2019-01-06T06:03:05.045Z,4.42
2019-01-06T06:05:52.029Z,5.37
2019-01-06T06:08:36.928Z,4.92
2019-01-06T06:11:40.348Z,4.67
2019-01-06T06:14:46.887Z,5.87
2019-01-06T06:17:53.602Z,5.47
2019-01-06T06:20:48.302Z,5.22
2019-01-06T06:23:48.806Z,4.97
2019-01-06T06:26:35.861Z,5.97
2019-01-06T06:29:22.945Z,6.22
2019-01-06T06:32:11.361Z,5.83
2019-01-06T06:34:58.242Z,6.03
2019-01-06T06:37:35.199Z,5.00
2019-01-06T06:40:22.704Z,4.87
2019-01-06T06:43:29.405Z,6.53
2019-01-06T06:46:29.494Z,6.67
2019-01-06T06:49:11.296Z,9.53
2019-01-06T06:52:00.455Z,9.17
2019-01-06T06:54:48.876Z,8.15
2019-01-06T06:58:11.877Z,11.33
2019-01-06T07:01:02.496Z,8.75
2019-01-06T07:04:06.102Z,9.95
2019-01-06T07:07:03.785Z,10.80
2019-01-06T07:09:53.167Z,18.43
2019-01-06T07:12:50.454Z,13.38
2019-01-06T07:15:37.427Z,10.65
2019-01-06T07:18:40.458Z,9.33
2019-01-06T07:21:32.012Z,10.13
2019-01-06T07:24:20.520Z,9.18
2019-01-06T07:27:17.859Z,11.45
2019-01-06T07:30:05.048Z,11.40
2019-01-06T07:32:52.349Z,14.30
2019-01-06T07:35:39.466Z,10.88
2019-01-06T07:38:36.859Z,13.47
2019-01-06T07:41:31.296Z,11.78
2019-01-06T07:44:12.049Z,18.92
2019-01-06T07:47:11.041Z,16.15
2019-01-06T07:49:58.168Z,24.07
2019-01-06T07:52:46.570Z,19.45
2019-01-06T07:55:34.943Z,21.95
2019-01-06T07:58:22.244Z,19.77
2019-01-06T08:01:07.684Z,15.10
2019-01-06T08:03:54.980Z,20.27
2019-01-06T08:06:42.324Z,23.07
2019-01-06T08:09:45.899Z,14.95
2019-01-06T08:12:34.302Z,22.35
2019-01-06T08:15:25.553Z,16.13
2019-01-06T08:18:12.560Z,14.45
2019-01-06T08:21:04.043Z,24.83
2019-01-06T08:23:51.016Z,25.00
2019-01-06T08:26:38.285Z,27.48
2019-01-06T08:29:38.860Z,28.62
2019-01-06T08:32:36.081Z,40.15
2019-01-06T08:35:39.931Z,29.00
2019-01-06T08:38:27.206Z,26.97
2019-01-06T08:41:27.766Z,43.83
2019-01-06T08:44:19.143Z,28.10
2019-01-06T08:47:06.199Z,30.17
2019-01-06T08:49:53.327Z,27.17
2019-01-06T08:53:00.028Z,36.87
2019-01-06T08:56:06.810Z,35.63
2019-01-06T08:59:04.704Z,37.90
2019-01-06T09:02:11.513Z,41.25
2019-01-06T09:05:03.898Z,46.57
2019-01-06T09:07:50.873Z,48.85
2019-01-06T09:10:45.369Z,43.00
2019-01-06T09:13:32.424Z,52.80
2019-01-06T09:16:19.925Z,54.95
2019-01-06T09:19:06.967Z,29.65
2019-01-06T09:21:58.141Z,33.08
2019-01-06T09:24:49.501Z,38.35
2019-01-06T09:27:38.163Z,38.55
2019-01-06T09:30:26.657Z,46.45
2019-01-06T09:33:13.819Z,31.73
2019-01-06T09:36:05.330Z,28.05
2019-01-06T09:38:52.303Z,30.62
2019-01-06T09:41:38.151Z,33.08
2019-01-06T09:44:41.701Z,30.10
2019-01-06T09:47:45.445Z,45.10
2019-01-06T09:50:42.526Z,40.17
2019-01-06T09:53:43.107Z,36.95
2019-01-06T09:56:29.499Z,38.70
2019-01-06T09:59:16.659Z,31.40
2019-01-06T10:02:05.183Z,37.23
2019-01-06T10:04:59.344Z,31.48
2019-01-06T10:07:59.816Z,22.50
2019-01-06T10:10:48.209Z,30.50
2019-01-06T10:13:35.009Z,61.50
2019-01-06T10:16:22.397Z,46.58
2019-01-06T10:19:09.606Z,34.38
2019-01-06T10:21:56.967Z,29.00
2019-01-06T10:24:54.662Z,33.63
2019-01-06T10:27:47.847Z,37.90
2019-01-06T10:30:48.469Z,18.02
2019-01-06T10:33:46.273Z,24.67
2019-01-06T10:36:33.392Z,15.98
2019-01-06T10:39:15.565Z,20.88
2019-01-06T10:42:10.015Z,29.63
2019-01-06T10:45:07.298Z,24.98
2019-01-06T10:47:57.030Z,20.23
2019-01-06T10:51:03.237Z,20.02
2019-01-06T10:54:01.065Z,17.37
2019-01-06T10:56:48.123Z,17.30
2019-01-06T10:59:35.096Z,20.63
2019-01-06T11:02:32.468Z,29.67
2019-01-06T11:05:30.270Z,21.60
2019-01-06T11:08:31.090Z,16.45
2019-01-06T11:11:18.367Z,19.57
2019-01-06T11:14:15.268Z,42.00
2019-01-06T11:17:16.084Z,62.53
2019-01-06T11:20:03.099Z,23.02
2019-01-06T11:22:54.270Z,17.00
2019-01-06T11:25:41.590Z,17.87
2019-01-06T11:28:30.065Z,30.37
2019-01-06T11:31:27.572Z,25.88
2019-01-06T11:34:31.247Z,19.60
2019-01-06T11:37:19.688Z,21.95
2019-01-06T11:40:08.136Z,55.25
2019-01-06T11:42:55.297Z,100.97
2019-01-06T11:45:46.672Z,467.00
2019-01-06T11:48:33.703Z,631.83
2019-01-06T11:51:25.986Z,183.82
2019-01-06T11:54:13.327Z,131.07
2019-01-06T11:57:00.574Z,264.25
2019-01-06T11:59:49.866Z,286.87
2019-01-06T12:02:50.419Z,310.88
2019-01-06T12:05:57.259Z,101.40
2019-01-06T12:08:45.782Z,33.15
2019-01-06T12:11:32.876Z,115.42
2019-01-06T12:14:30.538Z,210.57
2019-01-06T12:17:18.916Z,176.50
2019-01-06T12:20:05.967Z,39.73
2019-01-06T12:22:53.118Z,15.68
2019-01-06T12:25:41.627Z,194.17
2019-01-06T12:28:32.783Z,82.60
2019-01-06T12:31:24.038Z,29.80
2019-01-06T12:34:08.093Z,55.05
2019-01-06T12:36:56.382Z,74.72
2019-01-06T12:39:39.465Z,20.72
2019-01-06T12:42:30.701Z,57.40
2019-01-06T12:45:17.756Z,30.62
2019-01-06T12:48:21.247Z,53.08
2019-01-06T12:51:08.668Z,28.00
2019-01-06T12:54:06.524Z,36.37
2019-01-06T12:56:53.635Z,58.50
2019-01-06T12:59:54.455Z,61.80
2019-01-06T13:02:42.912Z,32.53
2019-01-06T13:05:30.023Z,26.52
2019-01-06T13:08:10.718Z,21.73
2019-01-06T13:11:11.599Z,37.58
2019-01-06T13:14:12.022Z,37.10
2019-01-06T13:17:09.532Z,32.65
2019-01-06T13:19:57.919Z,21.97
2019-01-06T13:23:04.657Z,33.67
2019-01-06T13:25:51.999Z,30.57
2019-01-06T13:28:52.448Z,25.95
2019-01-06T13:31:33.689Z,23.40
2019-01-06T13:34:17.291Z,29.40
2019-01-06T13:37:14.387Z,37.65
2019-01-06T13:40:20.980Z,39.70
2019-01-06T13:43:15.321Z,37.23
2019-01-06T13:46:02.343Z,42.17
2019-01-06T13:48:48.809Z,23.20
2019-01-06T13:51:35.901Z,37.10
2019-01-06T13:54:30.322Z,34.70
2019-01-06T13:57:15.915Z,29.52
2019-01-06T14:00:20.965Z,26.57
2019-01-06T14:03:24.491Z,23.55
2019-01-06T14:06:18.823Z,25.37
2019-01-06T14:09:10.204Z,25.07
2019-01-06T14:11:57.194Z,24.77
2019-01-06T14:14:40.770Z,26.55
2019-01-06T14:17:41.469Z,30.07
2019-01-06T14:20:36.096Z,42.75
2019-01-06T14:23:30.369Z,50.15
2019-01-06T14:26:30.966Z,51.88
2019-01-06T14:29:34.845Z,47.25
2019-01-06T14:32:22.154Z,41.45
2019-01-06T14:35:09.433Z,64.17
2019-01-06T14:37:56.809Z,53.40
2019-01-06T14:40:51.580Z,51.05
2019-01-06T14:43:39.965Z,50.95
2019-01-06T14:46:31.124Z,56.02
2019-01-06T14:49:28.804Z,56.23
2019-01-06T14:52:16.150Z,72.05
2019-01-06T14:55:07.561Z,44.10
2019-01-06T14:58:11.132Z,61.55
2019-01-06T15:01:02.350Z,112.05
2019-01-06T15:03:59.913Z,143.90
2019-01-06T15:06:57.273Z,148.45
2019-01-06T15:09:44.706Z,131.20
2019-01-06T15:12:33.125Z,126.97
2019-01-06T15:15:27.610Z,115.37
2019-01-06T15:18:25.424Z,83.92
2019-01-06T15:21:16.824Z,52.85
2019-01-06T15:24:08.354Z,58.17
2019-01-06T15:26:55.844Z,106.70
2019-01-06T15:29:43.792Z,96.22
2019-01-06T15:32:23.056Z,95.25
2019-01-06T15:35:11.492Z,60.12
2019-01-06T15:37:50.360Z,61.73
2019-01-06T15:40:44.982Z,60.50
2019-01-06T15:43:33.574Z,65.55
2019-01-06T15:46:40.360Z,74.27
2019-01-06T15:49:27.056Z,58.13
2019-01-06T15:52:23.295Z,41.37
2019-01-06T15:55:11.810Z,47.58
2019-01-06T15:58:09.229Z,54.00
2019-01-06T16:00:56.278Z,48.58
2019-01-06T16:03:44.756Z,42.73
2019-01-06T16:06:48.231Z,70.15
2019-01-06T16:09:35.359Z,41.92
2019-01-06T16:12:25.671Z,40.75
2019-01-06T16:15:17.071Z,45.40
2019-01-06T16:18:08.534Z,49.08
2019-01-06T16:20:55.824Z,50.73
2019-01-06T16:23:41.942Z,49.83
2019-01-06T16:26:29.342Z,49.53
2019-01-06T16:29:30.150Z,44.90
2019-01-06T16:32:29.629Z,38.70
2019-01-06T16:35:16.908Z,43.63
2019-01-06T16:38:08.198Z,41.90
2019-01-06T16:40:56.174Z,45.48
2019-01-06T16:43:46.832Z,47.93
2019-01-06T16:46:50.160Z,46.18
2019-01-06T16:49:41.597Z,93.60
2019-01-06T16:52:51.502Z,55.38
2019-01-06T16:55:47.492Z,59.53
2019-01-06T16:58:54.366Z,62.67
2019-01-06T17:01:56.621Z,64.30
2019-01-06T17:04:53.485Z,65.78
2019-01-06T17:07:44.624Z,64.12
2019-01-06T17:10:36.754Z,68.45
2019-01-06T17:13:29.933Z,67.20
2019-01-06T17:16:38.493Z,65.00
2019-01-06T17:19:25.782Z,65.57
2019-01-06T17:22:26.203Z,64.62
2019-01-06T17:25:21.998Z,76.53
2019-01-06T17:28:13.640Z,68.35
2019-01-06T17:31:20.159Z,67.33
2019-01-06T17:34:12.440Z,68.20
2019-01-06T17:37:05.913Z,70.32
2019-01-06T17:39:56.936Z,67.85
2019-01-06T17:42:53.030Z,65.47
2019-01-06T17:45:42.094Z,65.50
2019-01-06T17:48:36.749Z,65.78
2019-01-06T17:51:31.475Z,67.32
2019-01-06T17:54:38.412Z,68.20
2019-01-06T17:57:25.964Z,70.37
2019-01-06T18:00:13.243Z,65.50
2019-01-06T18:03:07.682Z,72.40
2019-01-06T18:06:08.949Z,76.97
2019-01-06T18:09:00.175Z,106.63
2019-01-06T18:11:47.860Z,114.12
2019-01-06T18:14:35.263Z,125.78
2019-01-06T18:17:29.507Z,143.87
2019-01-06T18:20:18.135Z,137.80
2019-01-06T18:23:15.639Z,122.20
2019-01-06T18:26:16.191Z,120.70
2019-01-06T18:29:04.562Z,162.73
2019-01-06T18:31:51.608Z,120.05
2019-01-06T18:34:38.983Z,128.95
2019-01-06T18:37:25.941Z,131.55
2019-01-06T18:40:22.510Z,130.27
2019-01-06T18:43:15.300Z,143.00
2019-01-06T18:46:02.394Z,135.47
2019-01-06T18:48:59.923Z,174.72
2019-01-06T18:51:51.073Z,156.57
2019-01-06T18:54:38.087Z,178.57
2019-01-06T18:57:25.512Z,189.87
2019-01-06T19:00:13.957Z,185.93
2019-01-06T19:03:05.286Z,204.80
2019-01-06T19:06:03.095Z,200.00
2019-01-06T19:09:03.767Z,199.23
2019-01-06T19:11:55.374Z,185.20
2019-01-06T19:14:44.772Z,269.57
2019-01-06T19:17:40.654Z,422.70
2019-01-06T19:20:29.240Z,254.57
2019-01-06T19:23:18.369Z,203.27
2019-01-06T19:26:13.264Z,183.22
2019-01-06T19:29:07.960Z,175.42
2019-01-06T19:32:05.409Z,167.90
2019-01-06T19:34:53.124Z,189.85
2019-01-06T19:37:40.583Z,374.32
2019-01-06T19:40:27.878Z,316.20
2019-01-06T19:43:14.920Z,209.55
2019-01-06T19:46:17.425Z,169.25
2019-01-06T19:49:07.652Z,186.73
2019-01-06T19:52:02.054Z,204.45
2019-01-06T19:54:48.193Z,220.73
2019-01-06T19:57:35.102Z,221.90
2019-01-06T20:00:30.459Z,208.53
2019-01-06T20:03:21.697Z,222.05
2019-01-06T20:06:22.156Z,205.05
2019-01-06T20:09:09.611Z,228.10
2019-01-06T20:11:58.039Z,360.17
2019-01-06T20:14:46.547Z,446.57
2019-01-06T20:17:40.783Z,349.67
2019-01-06T20:20:27.871Z,335.82
2019-01-06T20:23:25.242Z,344.75
2019-01-06T20:26:16.405Z,333.85
2019-01-06T20:29:04.765Z,276.05
2019-01-06T20:32:02.156Z,238.77
2019-01-06T20:34:49.034Z,207.55
2019-01-06T20:37:43.467Z,193.93
2019-01-06T20:40:30.483Z,198.90
2019-01-06T20:43:22.230Z,225.18
2019-01-06T20:46:29.137Z,218.10
2019-01-06T20:49:16.686Z,221.75
2019-01-06T20:52:06.767Z,216.00
2019-01-06T20:54:54.018Z,206.75
2019-01-06T20:57:35.193Z,208.25
2019-01-06T21:00:20.312Z,203.40
2019-01-06T21:03:17.961Z,202.38
2019-01-06T21:06:12.152Z,190.03
2019-01-06T21:08:59.221Z,195.57
2019-01-06T21:11:50.612Z,193.60
2019-01-06T21:14:45.036Z,185.15
2019-01-06T21:17:39.257Z,160.72
2019-01-06T21:20:26.580Z,169.02
2019-01-06T21:23:18.007Z,165.85
2019-01-06T21:26:02.462Z,173.25
2019-01-06T21:28:47.185Z,161.32
2019-01-06T21:31:31.090Z,158.57
2019-01-06T21:34:22.702Z,151.72
2019-01-06T21:37:09.184Z,158.55
2019-01-06T21:39:56.168Z,143.57
2019-01-06T21:42:42.810Z,146.40
2019-01-06T21:45:30.248Z,147.28
2019-01-06T21:48:30.750Z,150.18
2019-01-06T21:51:28.295Z,154.75
2019-01-06T21:54:15.230Z,148.47
2019-01-06T21:57:12.696Z,148.68
2019-01-06T22:00:06.955Z,149.05
2019-01-06T22:02:54.190Z,140.62
2019-01-06T22:05:35.378Z,157.93
2019-01-06T22:08:29.677Z,155.20
2019-01-06T22:11:21.307Z,163.65
2019-01-06T22:14:15.921Z,154.82
2019-01-06T22:17:13.457Z,167.32
2019-01-06T22:20:07.948Z,155.48
2019-01-06T22:22:55.204Z,171.32
2019-01-06T22:25:49.673Z,178.57
2019-01-06T22:28:43.854Z,179.30
2019-01-06T22:31:32.370Z,183.33
2019-01-06T22:34:23.594Z,191.35
2019-01-06T22:37:08.341Z,186.70
2019-01-06T22:39:55.473Z,192.85
2019-01-06T22:42:58.991Z,194.80
2019-01-06T22:46:02.640Z,193.57
2019-01-06T22:48:41.281Z,187.88
2019-01-06T22:51:32.420Z,197.90
2019-01-06T22:54:19.710Z,191.93
2019-01-06T22:57:07.068Z,206.20
2019-01-06T22:59:54.150Z,198.32
2019-01-06T23:02:41.305Z,208.02
2019-01-06T23:05:35.611Z,198.30
2019-01-06T23:08:22.613Z,210.45
2019-01-06T23:11:17.156Z,210.63
2019-01-06T23:14:12.950Z,213.62
2019-01-06T23:16:58.251Z,228.05
2019-01-06T23:19:46.604Z,230.18
2019-01-06T23:22:33.591Z,229.82
2019-01-06T23:25:20.593Z,229.10
2019-01-06T23:28:27.438Z,221.25
2019-01-06T23:31:10.941Z,227.57
2019-01-06T23:33:55.679Z,230.67
2019-01-06T23:36:32.886Z,232.18
2019-01-06T23:39:19.926Z,225.73
2019-01-06T23:42:06.971Z,226.12
2019-01-06T23:44:54.299Z,219.53
2019-01-06T23:47:39.688Z,216.00
2019-01-06T23:50:19.300Z,218.97
2019-01-06T23:53:13.991Z,228.02
2019-01-06T23:56:08.498Z,206.93
2019-01-06T23:58:56.925Z,205.05
